Сибирь

Регион "Восточная Сибирь" – сибирский макрорегион, который объединяет территории нескольких субъектов России (Новосибирская и Иркутская области, Красноярский край) и является частью территориальной структуры дивизиона VATRUS сети VATSIM.

Регион "Восточная Сибирь" включает в себя РегЦ Новосибирск, РегЦ Красноярск и РегЦ Иркутск, которые вместе покрывают воздушное пространство над территорией Сибирского федерального округа России общей площадью более 5 млн км. На территории макрорегиона располагаются более десятка международных аэропортов федерального значения. В верхнем воздушном пространстве РегЦ Новосибирск и РегЦ Красноярск проходят транссибирские трассы, обеспечивающие транзитный поток воздушных судов из Европы и Северной Америки в Азию и обратно. Воздушные трассы соединяют воздушное пространство России с воздушными пространствами Монголии, Китая и Казахстана.

В сети VATSIM обслуживание воздушного движения над территорией макрорегиона осуществляет позиция RU-ESC_FSS, позывной "Сибирь-Контроль", частота 135.225.

Лого Сибирь
Руководство

Aleksey Nevzorov

Куратор
Контакты

FSS региона
Обозначение
RU-ESC_FSS
Позывной
Сибирь-Контроль
Частота
135.225
Примечание
Top-down
Инструкторы региона
Aleksey Nevzorov (Instructor)
Anton Myglan (Senior Instructor)
Artem Smychkov (Instructor)
Kirill Shabunin * (Senior Controller)
Mikhail Gogolev (Instructor)
Mikhail Pompushko * (Senior Student)
Sergey Korolev (Instructor)
Tigran Areian * (Controller)
Включает в себя

РПИ Иркутск
РПИ Красноярск
РПИ Новосибирск

Диспетчеры региона

Диспетчер Рейтинг Допуски *
Aleksey Nevzorov Instructor UIII_CTR, UNKL_CTR, UNNT_CTR
Artem Smychkov Instructor UIII_CTR, UNKL_CTR, UNNT_CTR
Artem Tsendrovsky Senior Student UNNT_CTR *, UIII_APP, UNKL_APP(UNKL+UNKM), UNOO_APP, UNNT_APP
Ivan Chokenyuk Controller UNKL_CTR
Karim Garifullin Instructor UIII_CTR, UNKL_CTR, UNNT_CTR
Kirill Ivanov Senior Student UNNT_CTR *, UIII_APP, UNKL_APP(UNKL+UNKM), UNOO_APP, UNEE_APP, UNWW_APP, UNNT_APP, UNTT_TWR, UNBG_TWR
Kirill Shabunin Senior Controller UIII_CTR, UNKL_CTR, UNNT_CTR
Mikhail Gogolev Instructor UIII_CTR, UNKL_CTR, UNNT_CTR
Sergey Korolev Instructor UIII_CTR
Tigran Areian Controller UIII_CTR, UNKL_CTR, UNNT_CTR
Alexander Shchelganov Senior Student UNNT_APP
Alexey Ginko Student UNNT_GND
Andrey Myagkih Student UNNT_GND
Andrey Zonov Student 2 UIII_TWR, UNNT_TWR
Anton Gluchenkov Student 2 UNNT_TWR
Arseniy Kucheev Student 2 UIII_TWR, UNKL_TWR, UNNT_TWR, UNNT_R_APP*, UNOO_GND, UNEE_TWR
Artem Glinchikov Student UNNT_GND
Artem Yusko Student UNNT_GND
Atsamaz Khodov Senior Student UIII_TWR
Bogdan Mavrodiev Student UNNT_GND
Boris Yakunin Student 2 UNNT_TWR, UNNT_R_APP*
Daniel Ryabkov Senior Student UIII_APP
Daniil Shirshikov Student UNNT_GND
Darya Krauz Student UNNT_GND
Igor Murashkin Student UNNT_GND
Ilia Vasilev Student UNNT_GND
Kirill Khan Student UNNT_GND
Kirill Valigun Student 2 UNNT_R_APP*
Konstantin Bednov Student 2 UNKL_TWR, UNNT_TWR, UNOO_TWR, UNNT_R_APP*
Matvei Korshunov Student UNNT_GND
Maxim Konovalov Student UNNT_GND
Mikhail Pompushko Senior Student UITT_TWR, UIII_TWR, UNWW_APP, UNNT_APP, UNSS_R_APP, UNBG_TWR
Mikhail Shishkin Student UNNT_GND
Mikhail Shorokhov Student UNNT_GND
Nikita Razumov Student UNNT_GND
Semen Vaysman Student UNNT_GND
Sergey Arkasov Student 2 UNKL_TWR, UNNT_TWR*, UNNT_GND, UNBB_TWR
Stas Butrim Student UNNT_GND
Stepan Seleznev Student 2 UNNT_GND
Timofei Degtyar Student 2 UIII_TWR, UNOO_TWR, UNNT_R_APP*, UNNT_TWR
Vadim Kuzmin Student UNNT_GND, UNNT_TWR*
Valerii Diakov Student 2 UIII_TWR, UNWW_TWR, UNNT_R_APP*, UNNT_TWR
vlad vartanov Student UNNT_GND
Yaroslav Vasilyev Student 2 UIII_TWR
Yulia Khudic Student UNNT_GND

Аэропорты региона

ICAO Город Название Погода
UNKL Красноярск Красноярск UNKL 121800Z 29001MPS CAVOK 10/09 Q1010 R29/CLRD65 NOSIG RMK QFE732
UNAA Абакан Абакан UNAA 121800Z 29002MPS CAVOK 17/13 Q1008 R02/CLRD65 NOSIG RMK QFE734
UNKS Ачинск Ачинск
UNIB Байкит Байкит
UNBB Барнаул Барнаул UNBB 121800Z 05002MPS 9999 SCT040CB 19/16 Q1009 R24/CLRD66 NOSIG RMK QFE735
UNIP Бор Подкаменная Тунгуска
UIBB Братск Братск UIBB 121800Z AUTO 02002MPS 350V070 9999 // NSC 11/10 Q1010 RMK QFE714/0953
UNIW Ванавара Ванавара
UNBG Горно-Алтайск Горно-Алтайск
UNII Енисейск Енисейск
UIBV Железногорск Железногорск
UOII Игарка Игарка
UIII Иркутск Иркутск UIII 121800Z 09002MPS CAVOK 12/12 Q1009 R12/CLRD60 NOSIG RMK QFE715/0953
UNEE Кемерово Кемерово UNEE 121800Z 32001MPS CAVOK 15/10 Q1009 R05/CLRD60 NOSIG RMK QFE734
UNKM Красноярск-КЯС Черемшанка
UNKY Кызыл Кызыл
UNWW Новокузнецк Новокузнецк UNWW 121800Z 00000MPS CAVOK 16/16 Q1009 R19/220257 NOSIG RMK QFE730
UNNT Новосибирск Новосибирск UNNT 121800Z 35003MPS CAVOK 14/12 Q1010 R07/090070 R34/////// NOSIG RMK QFE747/0997
UOOO Норильск Норильск UOOO 121800Z 16004MPS CAVOK 08/08 Q1011 R19/CLRD60 NOSIG RMK QFE742/0989
UNOO Омск Омск UNOO 121800Z 28004MPS 8000 BKN033CB 18/14 Q1011 R25/CLRD60 NOSIG RMK QFE750
UOIG Светлогорск Светлогорск
UNIS Северо-Енисейск Северо-Енисейск
UNSS Стрежевой Стрежевой
UNTT Томск Томск UNTT 121800Z 10001MPS CAVOK 10/10 Q1010 R21/////// NOSIG RMK QFE743
UIUU Улан-Удэ Улан-Удэ UIUU 121800Z 00000MPS 9999 NSC 11/09 Q1010 R26/CLRD60 NOSIG RMK QFE713/0951
UITT Усть-Кут Усть-Кут
UOHH Хатанга Хатанга
UIAA Чита Чита UIAA 121800Z AUTO VRB01MPS 9999 NCD 09/09 Q1009 RMK QFE698/0931
UNKB Богучаны Богучаны
UIKB Бодайбо Бодайбо
UIKK Киренск Киренск
UNKI Кодинск Кодинск
UIUN Нижнеангарск Нижнеангарск
UECT Талакан Талакан
UNIT Тура Горный
UOTT Туруханск Туруханск
UIBS Усть-Илимск Усть-Илимск
UIAR Чара Чара
UNAU Шушенское Шушенское